• Join FlightAware (Why Join?)
  • Login
  • US Flag 
12:15AM EDT


 

Airport Tracker/Info


-or-


 

Live Flight TrackerFlight Track Log ✈ AAL2007 ✈ 05-May-2013 ✈ KORD - KAUS

Flight Track Log - Related Links

Times and Time Zones

All times are in EDT time to prevent confusion due to time zone crossing. See the AAL2007 flight status page for this flight to view local times or setup timezone preferences in your user account.

Time Position Orientation Groundspeed Altitude Reporting Facility
EDT Latitude Longitude Course Direction KTS MPH feet Rate Location/Type
06:14PM 42.0000 -87.9333 253° West 162 186 1,600  Level Chicago TRACON
06:17PM 42.1203 -88.0506 324° Northwest 256 295 6,100 2,040 Climbing Chicago Center
06:18PM 41.8274 -88.5102 254° West  Level FlightAware Approximate
06:18PM 42.1292 -88.1528 277° West 295 339 9,000  Level Chicago Center
06:19PM 41.7932 -88.6651 254° West  Level FlightAware Approximate
06:19PM 42.0961 -88.2769 250° West 297 342 11,900  Level Chicago Center
06:20PM 41.7588 -88.8198 253° West  Level FlightAware Approximate
06:20PM 42.0406 -88.3878 236° Southwest 363 418 12,700  Level Chicago Center
06:21PM 41.9783 -88.5103 236° Southwest 393 452 15,400 2,340 Climbing Chicago Center
06:23PM 41.8758 -88.7672 242° Southwest 400 460 19,500 2,040 Climbing Kansas City Center
06:24PM 41.8344 -88.9247 251° West 419 482 21,400 1,740 Climbing Kansas City Center
06:25PM 41.7919 -89.0833 250° West 441 507 23,200 1,620 Climbing Kansas City Center
06:26PM 41.7436 -89.2397 248° West 452 520 24,800 1,500 Climbing Kansas City Center
06:27PM 41.6981 -89.3978 249° West 455 524 26,400 1,440 Climbing Kansas City Center
06:28PM 41.6500 -89.5572 248° West 461 531 27,800 1,680 Climbing Kansas City Center
06:29PM 41.5933 -89.7464 248° West 461 531 29,900 1,680 Climbing Kansas City Center
06:30PM 41.5450 -89.9025 248° West 458 527 31,300 1,200 Climbing Kansas City Center
06:31PM 41.4994 -90.0556 248° West 451 519 32,500 1,020 Climbing Kansas City Center
06:32PM 41.4456 -90.2339 248° West 444 511 33,700 600 Climbing Chicago Center
06:34PM 41.3911 -90.4158 248° West 445 512 34,000 120 Climbing Chicago Center
06:35PM 41.3450 -90.5653 248° West 441 507 34,000  Level Chicago Center
06:36PM 41.2839 -90.7053 240° Southwest 438 504 34,000  Level Chicago Center
06:37PM 41.2103 -90.8297 232° Southwest 430 495 34,000  Level Chicago Center
06:38PM 41.1350 -90.9539 231° Southwest 431 496 34,000  Level Chicago Center
06:39PM 41.0608 -91.0800 232° Southwest 434 499 34,000  Level Chicago Center
06:40PM 40.9714 -91.2286 231° Southwest 432 497 34,000  Level Chicago Center
06:41PM 40.9064 -91.3386 232° Southwest 433 498 34,000  Level Chicago Center
06:42PM 40.8158 -91.4867 231° Southwest 433 498 34,000  Level Chicago Center
06:43PM 40.7411 -91.6103 231° Southwest 434 499 34,000  Level Chicago Center
06:44PM 40.6622 -91.7292 229° Southwest 433 498 34,000  Level Chicago Center
06:45PM 40.5681 -91.8211 217° Southwest 425 489 34,000  Level Chicago Center
06:46PM 40.4906 -91.8956 216° Southwest 428 493 34,000  Level Kansas City Center
06:47PM 40.3961 -91.9906 217° Southwest 429 494 34,000  Level Kansas City Center
06:48PM 40.3006 -92.0850 217° Southwest 429 494 34,000  Level Kansas City Center
06:49PM 40.2044 -92.1786 217° Southwest 429 494 34,000  Level Kansas City Center
06:50PM 40.0886 -92.2925 217° Southwest 432 497 34,000  Level Kansas City Center
06:51PM 39.9908 -92.3856 216° Southwest 432 497 34,000  Level Kansas City Center
06:52PM 39.8942 -92.4783 216° Southwest 431 496 34,000  Level Kansas City Center
06:53PM 39.7972 -92.5714 216° Southwest 432 497 34,000  Level Kansas City Center
06:55PM 39.6025 -92.7581 216° Southwest 436 502 34,000  Level Kansas City Center
06:56PM 39.5042 -92.8511 216° Southwest 437 503 34,000  Level Kansas City Center
06:57PM 39.3869 -92.9617 216° Southwest 438 504 34,000  Level Kansas City Center
06:58PM 39.2900 -93.0550 217° Southwest 438 504 34,000  Level Kansas City Center
06:59PM 39.1925 -93.1464 216° Southwest 437 503 34,000  Level Kansas City Center
07:01PM 39.0552 -93.2686 215° Southwest  Level FlightAware Approximate
07:01PM 38.9889 -93.3358 215° Southwest 441 507 34,000  Level Kansas City Center
07:02PM 38.8894 -93.4278 216° Southwest 440 506 34,000  Level Kansas City Center
07:03PM 38.7903 -93.5189 216° Southwest 439 505 34,000  Level Kansas City Center
07:04PM 38.6678 -93.6319 216° Southwest 445 512 34,000  Level Kansas City Center
07:05PM 38.5639 -93.7258 215° Southwest 451 519 34,000  Level Kansas City Center
07:06PM 38.4583 -93.8222 216° Southwest 458 527 34,000  Level Kansas City Center
07:07PM 38.3544 -93.9175 216° Southwest 461 531 34,000  Level Kansas City Center
07:08PM 38.2503 -94.0114 215° Southwest 460 529 34,000  Level Kansas City Center
07:09PM 38.1458 -94.1050 215° Southwest 459 528 34,000  Level Kansas City Center
07:10PM 38.0308 -94.2086 215° Southwest 456 525 34,000  Level Kansas City Center
07:11PM 37.9178 -94.3089 215° Southwest 456 525 34,000  Level Kansas City Center
07:12PM 37.8131 -94.4017 215° Southwest 458 527 34,000  Level Kansas City Center
07:13PM 37.7142 -94.4875 214° Southwest 454 522 34,000  Level Kansas City Center
07:14PM 37.6081 -94.5825 215° Southwest 453 521 34,000  Level Kansas City Center
07:16PM 37.5053 -94.6706 214° Southwest 446 513 34,000  Level Kansas City Center
07:17PM 37.4050 -94.7594 215° Southwest 443 510 34,000  Level Kansas City Center
07:18PM 37.3042 -94.8483 215° Southwest 442 509 34,000  Level Kansas City Center
07:19PM 37.1839 -94.9531 215° Southwest 439 505 34,000  Level Kansas City Center
07:20PM 37.0836 -95.0375 214° Southwest 436 502 34,000  Level Kansas City Center
07:21PM 36.9836 -95.1256 215° Southwest 436 502 34,000  Level Kansas City Center
07:22PM 36.8819 -95.2133 215° Southwest 442 509 34,000  Level Kansas City Center
07:23PM 36.7789 -95.3003 214° Southwest 445 512 34,000  Level Kansas City Center
07:24PM 36.6747 -95.3894 214° Southwest 452 520 34,000  Level Kansas City Center
07:25PM 36.5647 -95.4833 214° Southwest 455 524 34,000  Level Kansas City Center
07:26PM 36.4578 -95.5717 214° Southwest 460 529 34,000  Level Kansas City Center
07:27PM 36.3525 -95.6586 214° Southwest 456 525 34,000  Level Kansas City Center
07:28PM 36.2283 -95.7614 214° Southwest 449 517 34,000  Level Kansas City Center
07:29PM 36.1256 -95.8203 205° Southwest 457 526 34,000  Level Kansas City Center
07:30PM 35.9789 -95.8814 199° South 465 535 34,000  Level Kansas City Center
07:31PM 35.8578 -95.9339 199° South 463 533 34,000  Level Kansas City Center
07:32PM 35.7372 -95.9861 199° South 460 529 34,000  Level Kansas City Center
07:33PM 35.6175 -96.0378 199° South 456 525 34,000  Level Kansas City Center
07:34PM 35.5061 -96.0867 200° South 458 527 34,000  Level Kansas City Center
07:35PM 35.3631 -96.1492 200° South 455 524 34,000  Level Kansas City Center
07:36PM 35.2425 -96.2003 199° South 457 526 34,000  Level Kansas City Center
07:37PM 35.1172 -96.2561 200° South 461 531 34,000  Level Fort Worth Center
07:38PM 34.9967 -96.3058 199° South 461 531 34,000  Level Fort Worth Center
07:39PM 34.8803 -96.3556 199° South 461 531 34,000  Level Fort Worth Center
07:40PM 34.7619 -96.4075 200° South 461 531 34,000  Level Fort Worth Center
07:41PM 34.6433 -96.4569 199° South 461 531 34,000  Level Fort Worth Center
07:42PM 34.5206 -96.4961 195° South 456 525 34,000  Level Fort Worth Center
07:43PM 34.3956 -96.5225 190° South 456 525 34,000  Level Fort Worth Center
07:44PM 34.2683 -96.5514 191° South 456 525 34,000  Level Fort Worth Center
07:45PM 34.1456 -96.5803 191° South 456 525 34,000  Level Fort Worth Center
07:46PM 34.0206 -96.6092 191° South 456 525 34,000  Level Fort Worth Center
07:47PM 33.8997 -96.6353 190° South 456 525 34,000  Level Fort Worth Center
07:48PM 33.7914 -96.6586 190° South 449 517 34,000  Level Fort Worth Center
07:49PM 33.6536 -96.6872 190° South 455 524 34,000  Level Fort Worth Center
07:50PM 33.5411 -96.7131 191° South 460 529 34,000  Level Fort Worth Center
07:51PM 33.4036 -96.7442 191° South 460 529 34,000  Level Fort Worth Center
07:53PM 33.1556 -96.7981 190° South 466 536 34,000  Level Fort Worth Center
07:54PM 33.0283 -96.8236 190° South 466 536 34,000  Level Fort Worth Center
07:55PM 32.9031 -96.8517 191° South 466 536 34,000  Level Fort Worth Center
07:56PM 32.7781 -96.8747 189° South 466 536 34,000 -600 Level Fort Worth Center
07:57PM 32.6528 -96.9025 191° South 466 536 32,900 -1,020 Descending Fort Worth Center
07:58PM 32.5256 -96.9306 191° South 466 536 32,000 -960 Descending Fort Worth Center
07:59PM 32.3983 -96.9583 190° South 465 535 31,000 -960 Descending Fort Worth Center
08:00PM 32.2689 -96.9858 190° South 471 542 30,100 -960 Descending Fort Worth Center
08:01PM 32.1564 -97.0133 192° South 464 534 29,100 -1,020 Descending Fort Worth Center
08:02PM 32.0269 -97.0383 189° South 469 540 28,100 -1,020 Descending Fort Worth Center
08:03PM 31.8975 -97.0658 190° South 469 540 27,100 -1,080 Descending Fort Worth Center
08:04PM 31.8294 -97.0797 190° South 474 545 26,600 -1,020 Descending Houston Center
08:04PM 31.7578 -97.0958 191° South 469 540 26,100 -960 Descending Fort Worth Center
08:05PM 31.6264 -97.1206 189° South 469 540 25,100 -1,200 Descending Fort Worth Center
08:06PM 31.5725 -97.1311 189° South 463 533 24,400 -1,320 Descending Houston Center
08:07PM 31.4458 -97.1589 191° South 460 529 23,200 -1,620 Descending Houston Center
08:08PM 31.3208 -97.1839 190° South 453 521 21,200 -2,100 Descending Houston Center
08:09PM 31.1981 -97.2122 191° South 448 516 19,000 -2,100 Descending Houston Center
08:10PM 31.0878 -97.2553 198° South 421 484 16,900 -2,100 Descending Houston Center
08:11PM 30.9836 -97.2964 199° South 403 464 14,700 -1,980 Descending Houston Center
08:12PM 30.8639 -97.3425 198° South 402 463 12,900 -1,500 Descending Houston Center
08:13PM 30.7625 -97.3817 198° South 385 443 11,600 -1,320 Descending Houston Center
08:14PM 30.6594 -97.4225 199° South 386 444 10,200 -780 Descending Houston Center
08:15PM 30.5597 -97.4608 198° South 378 435 10,000 -660 Descending Houston Center
08:16PM 30.4753 -97.4931 198° South 324 373 8,900 -1,500 Descending Houston Center
08:17PM 30.3783 -97.5311 199° South 314 361 7,000 -1,560 Descending Houston Center
08:18PM 30.2953 -97.5431 187° South 299 344 5,800 -1,020 Descending Houston Center
08:19PM 30.2156 -97.5461 182° South 287 330 4,900 -840 Descending Houston Center
08:20PM 30.1442 -97.5517 184° South 264 304 4,100 -1,020 Descending Houston Center
08:21PM 30.1028 -97.5886 218° Southwest 226 260 2,900 -1,080 Descending Houston Center
08:22PM 30.1042 -97.6469 272° West 191 220 1,900 -900 Descending Houston Center
08:23PM 30.1431 -97.6561 348° North 158 182 1,100 -780 Descending Houston Center